sensor_id;sensor_type;location;lat;lon;timestamp;P1;durP1;ratioP1;P2;durP2;ratioP2
23490;SDS011;14683;50.038;8.078;2024-02-15T02:53:52;14.60;;;11.48;;
23490;SDS011;14683;50.038;8.078;2024-02-15T02:56:54;16.00;;;11.75;;
23490;SDS011;14683;50.038;8.078;2024-02-15T02:59:55;13.82;;;12.35;;
23490;SDS011;14683;50.038;8.078;2024-02-15T03:02:56;13.60;;;11.18;;
23490;SDS011;14683;50.038;8.078;2024-02-15T03:05:57;15.45;;;12.18;;
23490;SDS011;14683;50.038;8.078;2024-02-15T03:08:59;12.77;;;11.10;;
23490;SDS011;14683;50.038;8.078;2024-02-15T03:12:00;15.82;;;12.07;;
23490;SDS011;14683;50.038;8.078;2024-02-15T03:15:02;14.65;;;11.35;;
23490;SDS011;14683;50.038;8.078;2024-02-15T03:18:04;14.15;;;11.60;;
23490;SDS011;14683;50.038;8.078;2024-02-15T03:21:07;12.13;;;10.13;;
23490;SDS011;14683;50.038;8.078;2024-02-15T03:24:11;12.45;;;10.75;;
23490;SDS011;14683;50.038;8.078;2024-02-15T03:27:12;11.52;;;10.32;;
23490;SDS011;14683;50.038;8.078;2024-02-15T03:30:14;15.40;;;10.77;;
23490;SDS011;14683;50.038;8.078;2024-02-15T03:33:15;12.32;;;10.35;;
23490;SDS011;14683;50.038;8.078;2024-02-15T03:36:17;14.65;;;10.27;;
23490;SDS011;14683;50.038;8.078;2024-02-15T03:39:20;12.35;;;9.57;;
23490;SDS011;14683;50.038;8.078;2024-02-15T03:42:24;11.55;;;10.35;;
23490;SDS011;14683;50.038;8.078;2024-02-15T03:45:25;12.63;;;10.18;;
23490;SDS011;14683;50.038;8.078;2024-02-15T03:48:26;11.25;;;9.55;;
23490;SDS011;14683;50.038;8.078;2024-02-15T03:51:27;11.20;;;9.77;;
23490;SDS011;14683;50.038;8.078;2024-02-15T03:54:29;11.40;;;10.18;;
23490;SDS011;14683;50.038;8.078;2024-02-15T03:57:32;11.70;;;10.50;;
23490;SDS011;14683;50.038;8.078;2024-02-15T04:00:34;14.38;;;10.98;;
23490;SDS011;14683;50.038;8.078;2024-02-15T04:03:35;16.77;;;10.40;;
23490;SDS011;14683;50.038;8.078;2024-02-15T04:06:37;13.20;;;10.95;;
23490;SDS011;14683;50.038;8.078;2024-02-15T04:09:39;12.95;;;10.90;;
23490;SDS011;14683;50.038;8.078;2024-02-15T04:12:40;13.52;;;10.68;;
23490;SDS011;14683;50.038;8.078;2024-02-15T04:15:44;14.43;;;11.02;;
23490;SDS011;14683;50.038;8.078;2024-02-15T04:18:47;13.50;;;10.43;;
23490;SDS011;14683;50.038;8.078;2024-02-15T04:21:48;15.35;;;11.73;;
23490;SDS011;14683;50.038;8.078;2024-02-15T04:24:51;13.02;;;11.05;;
23490;SDS011;14683;50.038;8.078;2024-02-15T04:27:52;12.40;;;10.40;;
23490;SDS011;14683;50.038;8.078;2024-02-15T04:30:54;12.88;;;11.50;;
23490;SDS011;14683;50.038;8.078;2024-02-15T04:33:56;14.95;;;11.48;;
23490;SDS011;14683;50.038;8.078;2024-02-15T04:36:57;12.93;;;10.93;;
23490;SDS011;14683;50.038;8.078;2024-02-15T04:39:58;12.52;;;10.52;;
23490;SDS011;14683;50.038;8.078;2024-02-15T04:43:07;12.18;;;10.95;;
23490;SDS011;14683;50.038;8.078;2024-02-15T04:46:09;12.20;;;10.70;;
23490;SDS011;14683;50.038;8.078;2024-02-15T04:49:10;13.38;;;11.02;;
23490;SDS011;14683;50.038;8.078;2024-02-15T04:52:11;12.07;;;10.65;;
23490;SDS011;14683;50.038;8.078;2024-02-15T04:55:12;11.30;;;10.20;;
23490;SDS011;14683;50.038;8.078;2024-02-15T04:58:16;12.38;;;10.43;;
23490;SDS011;14683;50.038;8.078;2024-02-15T05:01:17;11.35;;;10.10;;
23490;SDS011;14683;50.038;8.078;2024-02-15T05:04:18;12.85;;;10.05;;
23490;SDS011;14683;50.038;8.078;2024-02-15T05:07:19;11.40;;;10.20;;
23490;SDS011;14683;50.038;8.078;2024-02-15T05:10:21;11.32;;;10.13;;
23490;SDS011;14683;50.038;8.078;2024-02-15T05:13:24;14.38;;;10.55;;
23490;SDS011;14683;50.038;8.078;2024-02-15T05:16:25;13.73;;;11.13;;
23490;SDS011;14683;50.038;8.078;2024-02-15T05:19:27;13.82;;;10.88;;
23490;SDS011;14683;50.038;8.078;2024-02-15T05:22:28;13.77;;;10.93;;
23490;SDS011;14683;50.038;8.078;2024-02-15T05:25:29;15.15;;;11.38;;
23490;SDS011;14683;50.038;8.078;2024-02-15T05:28:33;12.02;;;10.77;;
23490;SDS011;14683;50.038;8.078;2024-02-15T05:31:35;12.07;;;10.52;;
23490;SDS011;14683;50.038;8.078;2024-02-15T05:34:38;14.90;;;11.00;;
23490;SDS011;14683;50.038;8.078;2024-02-15T05:37:40;14.93;;;10.95;;
23490;SDS011;14683;50.038;8.078;2024-02-15T05:40:41;13.82;;;11.00;;
23490;SDS011;14683;50.038;8.078;2024-02-15T05:43:42;15.88;;;12.32;;
23490;SDS011;14683;50.038;8.078;2024-02-15T05:46:44;15.02;;;12.30;;
23490;SDS011;14683;50.038;8.078;2024-02-15T05:49:45;14.20;;;12.45;;
23490;SDS011;14683;50.038;8.078;2024-02-15T05:52:48;13.23;;;11.25;;
23490;SDS011;14683;50.038;8.078;2024-02-15T05:55:49;15.38;;;12.48;;
23490;SDS011;14683;50.038;8.078;2024-02-15T05:58:50;12.50;;;11.20;;
23490;SDS011;14683;50.038;8.078;2024-02-15T06:01:52;15.50;;;12.48;;
23490;SDS011;14683;50.038;8.078;2024-02-15T06:04:53;14.02;;;12.13;;
23490;SDS011;14683;50.038;8.078;2024-02-15T06:07:55;14.10;;;12.20;;
23490;SDS011;14683;50.038;8.078;2024-02-15T06:10:58;14.40;;;12.85;;
23490;SDS011;14683;50.038;8.078;2024-02-15T06:13:59;14.00;;;11.93;;
23490;SDS011;14683;50.038;8.078;2024-02-15T06:17:00;14.32;;;10.85;;
23490;SDS011;14683;50.038;8.078;2024-02-15T06:20:03;18.30;;;12.60;;
23490;SDS011;14683;50.038;8.078;2024-02-15T06:23:04;13.27;;;10.95;;
23490;SDS011;14683;50.038;8.078;2024-02-15T06:26:07;13.73;;;10.50;;
23490;SDS011;14683;50.038;8.078;2024-02-15T06:29:08;14.63;;;11.57;;
23490;SDS011;14683;50.038;8.078;2024-02-15T06:32:28;15.05;;;10.95;;
23490;SDS011;14683;50.038;8.078;2024-02-15T06:35:48;14.93;;;11.00;;
23490;SDS011;14683;50.038;8.078;2024-02-15T06:39:07;11.48;;;10.27;;
23490;SDS011;14683;50.038;8.078;2024-02-15T06:42:27;12.77;;;11.45;;
23490;SDS011;14683;50.038;8.078;2024-02-15T06:45:31;14.50;;;11.85;;
23490;SDS011;14683;50.038;8.078;2024-02-15T06:48:32;13.07;;;11.60;;
23490;SDS011;14683;50.038;8.078;2024-02-15T06:51:34;12.38;;;10.63;;
23490;SDS011;14683;50.038;8.078;2024-02-15T06:54:35;13.00;;;11.07;;
23490;SDS011;14683;50.038;8.078;2024-02-15T06:57:39;13.52;;;11.07;;
23490;SDS011;14683;50.038;8.078;2024-02-15T07:00:43;15.48;;;11.88;;
23490;SDS011;14683;50.038;8.078;2024-02-15T07:03:44;18.35;;;13.02;;
23490;SDS011;14683;50.038;8.078;2024-02-15T07:06:46;17.08;;;14.35;;
23490;SDS011;14683;50.038;8.078;2024-02-15T07:09:48;16.98;;;13.85;;
23490;SDS011;14683;50.038;8.078;2024-02-15T07:12:49;20.50;;;14.68;;
23490;SDS011;14683;50.038;8.078;2024-02-15T07:15:50;31.05;;;21.70;;
23490;SDS011;14683;50.038;8.078;2024-02-15T07:18:52;30.88;;;20.83;;
23490;SDS011;14683;50.038;8.078;2024-02-15T07:21:54;26.45;;;17.88;;
23490;SDS011;14683;50.038;8.078;2024-02-15T07:24:57;25.40;;;17.35;;
23490;SDS011;14683;50.038;8.078;2024-02-15T07:27:58;21.42;;;16.73;;
23490;SDS011;14683;50.038;8.078;2024-02-15T07:30:59;26.88;;;19.27;;
23490;SDS011;14683;50.038;8.078;2024-02-15T07:34:03;25.15;;;19.35;;
23490;SDS011;14683;50.038;8.078;2024-02-15T07:37:06;32.45;;;22.42;;
23490;SDS011;14683;50.038;8.078;2024-02-15T07:40:08;37.63;;;26.05;;
23490;SDS011;14683;50.038;8.078;2024-02-15T07:43:09;29.00;;;20.85;;
23490;SDS011;14683;50.038;8.078;2024-02-15T07:46:14;24.95;;;17.65;;
23490;SDS011;14683;50.038;8.078;2024-02-15T07:49:17;19.58;;;15.43;;
23490;SDS011;14683;50.038;8.078;2024-02-15T07:52:18;16.92;;;13.38;;
23490;SDS011;14683;50.038;8.078;2024-02-15T07:55:19;16.20;;;13.15;;
23490;SDS011;14683;50.038;8.078;2024-02-15T07:58:20;18.27;;;13.20;;
23490;SDS011;14683;50.038;8.078;2024-02-15T08:01:23;15.77;;;12.77;;
23490;SDS011;14683;50.038;8.078;2024-02-15T08:04:24;14.40;;;12.55;;
23490;SDS011;14683;50.038;8.078;2024-02-15T08:07:25;16.52;;;13.10;;
23490;SDS011;14683;50.038;8.078;2024-02-15T08:10:31;15.60;;;13.75;;
23490;SDS011;14683;50.038;8.078;2024-02-15T08:13:32;16.15;;;14.05;;
23490;SDS011;14683;50.038;8.078;2024-02-15T08:16:33;18.50;;;14.68;;
23490;SDS011;14683;50.038;8.078;2024-02-15T08:19:35;18.73;;;14.77;;
23490;SDS011;14683;50.038;8.078;2024-02-15T08:22:37;22.40;;;16.10;;
23490;SDS011;14683;50.038;8.078;2024-02-15T08:25:39;20.08;;;15.95;;
23490;SDS011;14683;50.038;8.078;2024-02-15T08:28:42;19.38;;;15.02;;
23490;SDS011;14683;50.038;8.078;2024-02-15T08:31:43;19.48;;;14.75;;
23490;SDS011;14683;50.038;8.078;2024-02-15T08:34:44;20.88;;;14.93;;
23490;SDS011;14683;50.038;8.078;2024-02-15T08:37:47;20.50;;;14.65;;
23490;SDS011;14683;50.038;8.078;2024-02-15T08:40:50;18.35;;;13.73;;
23490;SDS011;14683;50.038;8.078;2024-02-15T08:43:52;15.82;;;13.13;;
23490;SDS011;14683;50.038;8.078;2024-02-15T08:46:54;15.20;;;13.55;;
23490;SDS011;14683;50.038;8.078;2024-02-15T08:49:56;16.50;;;12.73;;
23490;SDS011;14683;50.038;8.078;2024-02-15T08:52:59;14.73;;;11.93;;
23490;SDS011;14683;50.038;8.078;2024-02-15T08:56:01;15.68;;;11.98;;
23490;SDS011;14683;50.038;8.078;2024-02-15T08:59:02;16.08;;;11.77;;
23490;SDS011;14683;50.038;8.078;2024-02-15T09:02:03;18.33;;;13.35;;
23490;SDS011;14683;50.038;8.078;2024-02-15T09:05:06;22.92;;;16.00;;
23490;SDS011;14683;50.038;8.078;2024-02-15T09:08:07;20.00;;;14.30;;
23490;SDS011;14683;50.038;8.078;2024-02-15T09:11:09;16.77;;;13.20;;
23490;SDS011;14683;50.038;8.078;2024-02-15T09:14:13;20.52;;;13.82;;
23490;SDS011;14683;50.038;8.078;2024-02-15T09:17:14;17.42;;;13.50;;
23490;SDS011;14683;50.038;8.078;2024-02-15T09:20:16;14.75;;;13.15;;
23490;SDS011;14683;50.038;8.078;2024-02-15T09:23:32;17.90;;;12.85;;
23490;SDS011;14683;50.038;8.078;2024-02-15T09:26:33;17.63;;;12.65;;
23490;SDS011;14683;50.038;8.078;2024-02-15T09:29:35;18.90;;;13.13;;
23490;SDS011;14683;50.038;8.078;2024-02-15T09:32:36;16.95;;;14.10;;
23490;SDS011;14683;50.038;8.078;2024-02-15T09:35:37;15.02;;;12.65;;
23490;SDS011;14683;50.038;8.078;2024-02-15T09:38:39;17.27;;;13.48;;
23490;SDS011;14683;50.038;8.078;2024-02-15T09:41:40;16.65;;;13.27;;
23490;SDS011;14683;50.038;8.078;2024-02-15T09:44:43;15.23;;;13.15;;
23490;SDS011;14683;50.038;8.078;2024-02-15T09:47:47;14.98;;;12.70;;
23490;SDS011;14683;50.038;8.078;2024-02-15T09:50:52;19.35;;;12.80;;
23490;SDS011;14683;50.038;8.078;2024-02-15T09:53:54;18.27;;;13.90;;
23490;SDS011;14683;50.038;8.078;2024-02-15T09:56:58;20.83;;;13.75;;
23490;SDS011;14683;50.038;8.078;2024-02-15T10:00:02;18.35;;;14.85;;
23490;SDS011;14683;50.038;8.078;2024-02-15T10:03:08;15.38;;;13.60;;
23490;SDS011;14683;50.038;8.078;2024-02-15T10:06:10;19.55;;;13.30;;
23490;SDS011;14683;50.038;8.078;2024-02-15T10:09:24;19.58;;;12.98;;
23490;SDS011;14683;50.038;8.078;2024-02-15T10:12:38;16.88;;;14.13;;
23490;SDS011;14683;50.038;8.078;2024-02-15T10:15:39;14.07;;;12.27;;
23490;SDS011;14683;50.038;8.078;2024-02-15T10:18:45;15.93;;;10.98;;
23490;SDS011;14683;50.038;8.078;2024-02-15T10:21:51;17.63;;;12.18;;
23490;SDS011;14683;50.038;8.078;2024-02-15T10:25:14;11.57;;;9.70;;
23490;SDS011;14683;50.038;8.078;2024-02-15T10:28:20;13.88;;;9.95;;
23490;SDS011;14683;50.038;8.078;2024-02-15T10:31:24;10.80;;;8.60;;
23490;SDS011;14683;50.038;8.078;2024-02-15T10:34:25;8.70;;;6.88;;
23490;SDS011;14683;50.038;8.078;2024-02-15T10:37:28;9.68;;;6.40;;
23490;SDS011;14683;50.038;8.078;2024-02-15T10:40:29;8.52;;;6.68;;
23490;SDS011;14683;50.038;8.078;2024-02-15T10:43:31;7.63;;;6.82;;
23490;SDS011;14683;50.038;8.078;2024-02-15T10:46:33;8.73;;;6.63;;
23490;SDS011;14683;50.038;8.078;2024-02-15T10:49:34;9.93;;;6.80;;
23490;SDS011;14683;50.038;8.078;2024-02-15T10:52:44;13.82;;;8.00;;
23490;SDS011;14683;50.038;8.078;2024-02-15T10:59:10;9.95;;;6.88;;
23490;SDS011;14683;50.038;8.078;2024-02-15T11:02:30;8.68;;;6.70;;
23490;SDS011;14683;50.038;8.078;2024-02-15T11:05:35;7.75;;;6.10;;
23490;SDS011;14683;50.038;8.078;2024-02-15T11:08:38;10.38;;;6.57;;
23490;SDS011;14683;50.038;8.078;2024-02-15T11:11:40;9.38;;;6.03;;
23490;SDS011;14683;50.038;8.078;2024-02-15T11:14:44;8.07;;;6.57;;
23490;SDS011;14683;50.038;8.078;2024-02-15T11:17:45;8.48;;;6.70;;
23490;SDS011;14683;50.038;8.078;2024-02-15T11:20:49;13.80;;;7.00;;
23490;SDS011;14683;50.038;8.078;2024-02-15T11:23:51;9.18;;;7.22;;
23490;SDS011;14683;50.038;8.078;2024-02-15T11:26:52;11.48;;;8.27;;
23490;SDS011;14683;50.038;8.078;2024-02-15T11:30:07;9.68;;;7.25;;
23490;SDS011;14683;50.038;8.078;2024-02-15T11:33:28;11.30;;;7.45;;
23490;SDS011;14683;50.038;8.078;2024-02-15T11:36:30;9.40;;;8.18;;
23490;SDS011;14683;50.038;8.078;2024-02-15T11:39:42;12.18;;;8.20;;
23490;SDS011;14683;50.038;8.078;2024-02-15T11:42:44;9.55;;;7.22;;
23490;SDS011;14683;50.038;8.078;2024-02-15T11:45:57;14.50;;;8.77;;
23490;SDS011;14683;50.038;8.078;2024-02-15T11:48:59;12.98;;;7.15;;
23490;SDS011;14683;50.038;8.078;2024-02-15T11:52:08;8.60;;;5.72;;
23490;SDS011;14683;50.038;8.078;2024-02-15T11:55:11;7.60;;;6.18;;
23490;SDS011;14683;50.038;8.078;2024-02-15T11:58:13;7.57;;;6.47;;
23490;SDS011;14683;50.038;8.078;2024-02-15T12:01:22;11.05;;;6.65;;
23490;SDS011;14683;50.038;8.078;2024-02-15T12:04:42;8.35;;;6.13;;
23490;SDS011;14683;50.038;8.078;2024-02-15T12:08:02;10.90;;;6.97;;
23490;SDS011;14683;50.038;8.078;2024-02-15T12:11:22;9.85;;;6.60;;
23490;SDS011;14683;50.038;8.078;2024-02-15T12:14:42;8.15;;;6.55;;
23490;SDS011;14683;50.038;8.078;2024-02-15T12:18:17;8.30;;;5.82;;
23490;SDS011;14683;50.038;8.078;2024-02-15T12:21:37;8.63;;;5.95;;
23490;SDS011;14683;50.038;8.078;2024-02-15T12:24:42;10.30;;;6.28;;
23490;SDS011;14683;50.038;8.078;2024-02-15T12:27:44;7.90;;;5.70;;
23490;SDS011;14683;50.038;8.078;2024-02-15T12:30:47;8.43;;;6.00;;
23490;SDS011;14683;50.038;8.078;2024-02-15T12:34:02;8.32;;;6.20;;
23490;SDS011;14683;50.038;8.078;2024-02-15T12:37:10;8.43;;;6.10;;
23490;SDS011;14683;50.038;8.078;2024-02-15T12:40:11;9.70;;;5.95;;
23490;SDS011;14683;50.038;8.078;2024-02-15T12:43:20;10.32;;;6.50;;
23490;SDS011;14683;50.038;8.078;2024-02-15T12:46:21;9.07;;;6.30;;
23490;SDS011;14683;50.038;8.078;2024-02-15T12:52:37;7.50;;;5.38;;
23490;SDS011;14683;50.038;8.078;2024-02-15T12:55:39;7.82;;;5.85;;
23490;SDS011;14683;50.038;8.078;2024-02-15T12:58:41;10.82;;;6.97;;
23490;SDS011;14683;50.038;8.078;2024-02-15T13:01:44;10.80;;;7.20;;
23490;SDS011;14683;50.038;8.078;2024-02-15T13:04:47;7.75;;;6.22;;
23490;SDS011;14683;50.038;8.078;2024-02-15T13:07:52;11.57;;;6.20;;
23490;SDS011;14683;50.038;8.078;2024-02-15T13:13:57;7.70;;;5.28;;
23490;SDS011;14683;50.038;8.078;2024-02-15T13:16:58;11.15;;;6.60;;
23490;SDS011;14683;50.038;8.078;2024-02-15T13:20:00;14.25;;;6.72;;
23490;SDS011;14683;50.038;8.078;2024-02-15T13:23:09;8.60;;;6.80;;
23490;SDS011;14683;50.038;8.078;2024-02-15T13:26:23;10.60;;;7.03;;
23490;SDS011;14683;50.038;8.078;2024-02-15T13:29:26;11.98;;;6.88;;
23490;SDS011;14683;50.038;8.078;2024-02-15T13:32:27;11.18;;;7.35;;
23490;SDS011;14683;50.038;8.078;2024-02-15T13:35:28;10.13;;;6.28;;
23490;SDS011;14683;50.038;8.078;2024-02-15T13:38:29;9.60;;;6.45;;
23490;SDS011;14683;50.038;8.078;2024-02-15T13:41:31;6.82;;;5.05;;
23490;SDS011;14683;50.038;8.078;2024-02-15T13:44:32;10.93;;;6.20;;
23490;SDS011;14683;50.038;8.078;2024-02-15T13:47:33;9.45;;;5.53;;
23490;SDS011;14683;50.038;8.078;2024-02-15T13:50:34;10.98;;;5.88;;
23490;SDS011;14683;50.038;8.078;2024-02-15T13:53:36;10.68;;;6.30;;
23490;SDS011;14683;50.038;8.078;2024-02-15T13:56:37;11.23;;;6.15;;
23490;SDS011;14683;50.038;8.078;2024-02-15T13:59:38;9.35;;;6.07;;
23490;SDS011;14683;50.038;8.078;2024-02-15T14:02:42;9.43;;;5.70;;
23490;SDS011;14683;50.038;8.078;2024-02-15T14:05:46;7.80;;;4.80;;
23490;SDS011;14683;50.038;8.078;2024-02-15T14:08:48;6.50;;;2.80;;
23490;SDS011;14683;50.038;8.078;2024-02-15T14:11:49;5.00;;;1.90;;
23490;SDS011;14683;50.038;8.078;2024-02-15T14:14:51;3.28;;;2.03;;
23490;SDS011;14683;50.038;8.078;2024-02-15T14:17:52;2.50;;;2.30;;
23490;SDS011;14683;50.038;8.078;2024-02-15T14:20:53;5.03;;;1.75;;
23490;SDS011;14683;50.038;8.078;2024-02-15T14:23:54;4.03;;;1.65;;
23490;SDS011;14683;50.038;8.078;2024-02-15T14:26:55;3.97;;;2.00;;
23490;SDS011;14683;50.038;8.078;2024-02-15T14:29:56;2.65;;;1.88;;
23490;SDS011;14683;50.038;8.078;2024-02-15T14:33:16;1.85;;;1.15;;
23490;SDS011;14683;50.038;8.078;2024-02-15T14:36:19;2.58;;;1.85;;
23490;SDS011;14683;50.038;8.078;2024-02-15T14:39:20;3.47;;;2.00;;
23490;SDS011;14683;50.038;8.078;2024-02-15T14:42:22;2.88;;;1.65;;
23490;SDS011;14683;50.038;8.078;2024-02-15T14:45:23;2.70;;;1.80;;
23490;SDS011;14683;50.038;8.078;2024-02-15T14:48:25;6.05;;;1.70;;
23490;SDS011;14683;50.038;8.078;2024-02-15T14:51:26;2.35;;;1.65;;
23490;SDS011;14683;50.038;8.078;2024-02-15T14:54:27;4.15;;;2.08;;
23490;SDS011;14683;50.038;8.078;2024-02-15T14:57:29;1.85;;;1.38;;
23490;SDS011;14683;50.038;8.078;2024-02-15T15:00:30;1.98;;;1.58;;
23490;SDS011;14683;50.038;8.078;2024-02-15T15:03:31;3.88;;;1.70;;
23490;SDS011;14683;50.038;8.078;2024-02-15T15:06:33;5.55;;;1.85;;
23490;SDS011;14683;50.038;8.078;2024-02-15T15:09:53;3.40;;;1.48;;
23490;SDS011;14683;50.038;8.078;2024-02-15T15:13:13;3.15;;;1.98;;
23490;SDS011;14683;50.038;8.078;2024-02-15T15:16:14;3.85;;;1.52;;
23490;SDS011;14683;50.038;8.078;2024-02-15T15:19:18;2.72;;;1.60;;
23490;SDS011;14683;50.038;8.078;2024-02-15T15:22:19;3.33;;;1.58;;
23490;SDS011;14683;50.038;8.078;2024-02-15T15:25:21;3.28;;;1.40;;
23490;SDS011;14683;50.038;8.078;2024-02-15T15:28:24;4.93;;;2.00;;
23490;SDS011;14683;50.038;8.078;2024-02-15T15:31:26;3.75;;;1.80;;
23490;SDS011;14683;50.038;8.078;2024-02-15T15:34:27;3.63;;;2.03;;
23490;SDS011;14683;50.038;8.078;2024-02-15T15:37:28;4.07;;;1.80;;
23490;SDS011;14683;50.038;8.078;2024-02-15T15:40:29;3.58;;;1.95;;
23490;SDS011;14683;50.038;8.078;2024-02-15T15:43:30;1.85;;;1.65;;
23490;SDS011;14683;50.038;8.078;2024-02-15T15:46:32;4.68;;;2.20;;
23490;SDS011;14683;50.038;8.078;2024-02-15T15:49:34;3.80;;;1.90;;
23490;SDS011;14683;50.038;8.078;2024-02-15T15:52:35;3.40;;;2.10;;
23490;SDS011;14683;50.038;8.078;2024-02-15T15:55:36;8.00;;;3.10;;
23490;SDS011;14683;50.038;8.078;2024-02-15T15:58:37;4.15;;;2.60;;
23490;SDS011;14683;50.038;8.078;2024-02-15T16:01:50;4.63;;;2.70;;
23490;SDS011;14683;50.038;8.078;2024-02-15T16:04:51;4.15;;;2.50;;
23490;SDS011;14683;50.038;8.078;2024-02-15T16:07:55;3.70;;;2.63;;
23490;SDS011;14683;50.038;8.078;2024-02-15T16:10:57;4.90;;;2.83;;
23490;SDS011;14683;50.038;8.078;2024-02-15T16:13:58;5.22;;;3.10;;
23490;SDS011;14683;50.038;8.078;2024-02-15T16:16:59;3.88;;;2.88;;
23490;SDS011;14683;50.038;8.078;2024-02-15T16:20:01;3.75;;;2.67;;
23490;SDS011;14683;50.038;8.078;2024-02-15T16:23:05;5.30;;;2.88;;
23490;SDS011;14683;50.038;8.078;2024-02-15T16:26:06;6.05;;;3.10;;
23490;SDS011;14683;50.038;8.078;2024-02-15T16:29:13;4.70;;;3.30;;
23490;SDS011;14683;50.038;8.078;2024-02-15T16:32:15;8.35;;;3.03;;
23490;SDS011;14683;50.038;8.078;2024-02-15T16:35:16;4.68;;;2.85;;
23490;SDS011;14683;50.038;8.078;2024-02-15T16:38:19;4.05;;;3.05;;
23490;SDS011;14683;50.038;8.078;2024-02-15T16:41:21;6.70;;;4.40;;
23490;SDS011;14683;50.038;8.078;2024-02-15T16:44:22;7.28;;;4.38;;
23490;SDS011;14683;50.038;8.078;2024-02-15T16:47:23;7.65;;;4.28;;
23490;SDS011;14683;50.038;8.078;2024-02-15T16:50:26;7.97;;;4.88;;
23490;SDS011;14683;50.038;8.078;2024-02-15T16:53:28;8.05;;;4.72;;
23490;SDS011;14683;50.038;8.078;2024-02-15T16:56:29;6.97;;;4.03;;
23490;SDS011;14683;50.038;8.078;2024-02-15T16:59:31;8.88;;;4.50;;
23490;SDS011;14683;50.038;8.078;2024-02-15T17:02:34;4.13;;;3.28;;
23490;SDS011;14683;50.038;8.078;2024-02-15T17:05:36;5.30;;;2.67;;
23490;SDS011;14683;50.038;8.078;2024-02-15T17:08:38;8.57;;;2.90;;
23490;SDS011;14683;50.038;8.078;2024-02-15T17:11:41;5.93;;;3.60;;
23490;SDS011;14683;50.038;8.078;2024-02-15T17:14:42;5.50;;;3.83;;
23490;SDS011;14683;50.038;8.078;2024-02-15T17:17:44;7.05;;;4.10;;
23490;SDS011;14683;50.038;8.078;2024-02-15T17:20:46;7.65;;;4.82;;
23490;SDS011;14683;50.038;8.078;2024-02-15T17:23:47;7.68;;;4.78;;
23490;SDS011;14683;50.038;8.078;2024-02-15T17:26:48;11.20;;;5.25;;
23490;SDS011;14683;50.038;8.078;2024-02-15T17:29:50;10.27;;;5.38;;
23490;SDS011;14683;50.038;8.078;2024-02-15T17:32:51;8.45;;;6.15;;
23490;SDS011;14683;50.038;8.078;2024-02-15T17:35:52;7.60;;;5.55;;
23490;SDS011;14683;50.038;8.078;2024-02-15T17:38:55;5.97;;;4.10;;
23490;SDS011;14683;50.038;8.078;2024-02-15T17:41:56;9.82;;;5.20;;
23490;SDS011;14683;50.038;8.078;2024-02-15T17:44:57;6.88;;;3.88;;
23490;SDS011;14683;50.038;8.078;2024-02-15T17:47:58;9.13;;;4.32;;
23490;SDS011;14683;50.038;8.078;2024-02-15T17:50:59;6.63;;;4.13;;
23490;SDS011;14683;50.038;8.078;2024-02-15T17:54:00;5.70;;;4.20;;
23490;SDS011;14683;50.038;8.078;2024-02-15T17:57:02;7.80;;;4.72;;
23490;SDS011;14683;50.038;8.078;2024-02-15T18:00:04;7.35;;;4.47;;
23490;SDS011;14683;50.038;8.078;2024-02-15T18:03:14;6.22;;;4.03;;
23490;SDS011;14683;50.038;8.078;2024-02-15T18:06:16;5.75;;;4.03;;
23490;SDS011;14683;50.038;8.078;2024-02-15T18:09:17;7.75;;;4.72;;
23490;SDS011;14683;50.038;8.078;2024-02-15T18:12:18;6.75;;;4.90;;
23490;SDS011;14683;50.038;8.078;2024-02-15T18:15:23;8.68;;;5.03;;
23490;SDS011;14683;50.038;8.078;2024-02-15T18:18:24;7.68;;;5.38;;
23490;SDS011;14683;50.038;8.078;2024-02-15T18:21:26;6.55;;;5.30;;
23490;SDS011;14683;50.038;8.078;2024-02-15T18:24:33;10.57;;;5.57;;
23490;SDS011;14683;50.038;8.078;2024-02-15T18:27:34;12.18;;;6.85;;
23490;SDS011;14683;50.038;8.078;2024-02-15T18:30:37;11.68;;;7.53;;
23490;SDS011;14683;50.038;8.078;2024-02-15T18:33:43;10.45;;;7.93;;
23490;SDS011;14683;50.038;8.078;2024-02-15T18:36:44;14.70;;;6.72;;
23490;SDS011;14683;50.038;8.078;2024-02-15T18:39:45;12.45;;;7.43;;
23490;SDS011;14683;50.038;8.078;2024-02-15T18:42:47;9.50;;;6.35;;
23490;SDS011;14683;50.038;8.078;2024-02-15T18:45:49;8.90;;;6.43;;
23490;SDS011;14683;50.038;8.078;2024-02-15T18:48:50;8.73;;;6.22;;
23490;SDS011;14683;50.038;8.078;2024-02-15T18:51:51;8.73;;;6.43;;
23490;SDS011;14683;50.038;8.078;2024-02-15T18:54:52;14.77;;;6.70;;
23490;SDS011;14683;50.038;8.078;2024-02-15T18:57:57;11.85;;;6.55;;
23490;SDS011;14683;50.038;8.078;2024-02-15T19:00:59;10.07;;;6.00;;
23490;SDS011;14683;50.038;8.078;2024-02-15T19:04:01;10.00;;;7.00;;
23490;SDS011;14683;50.038;8.078;2024-02-15T19:07:03;11.00;;;5.93;;
23490;SDS011;14683;50.038;8.078;2024-02-15T19:10:07;10.75;;;6.05;;
23490;SDS011;14683;50.038;8.078;2024-02-15T19:13:08;11.35;;;5.97;;
23490;SDS011;14683;50.038;8.078;2024-02-15T19:16:09;9.10;;;6.85;;
23490;SDS011;14683;50.038;8.078;2024-02-15T19:19:13;12.23;;;7.68;;
23490;SDS011;14683;50.038;8.078;2024-02-15T19:22:14;11.02;;;7.18;;
23490;SDS011;14683;50.038;8.078;2024-02-15T19:25:15;9.05;;;6.60;;
23490;SDS011;14683;50.038;8.078;2024-02-15T19:28:18;8.88;;;5.75;;
23490;SDS011;14683;50.038;8.078;2024-02-15T19:31:19;9.02;;;5.22;;
23490;SDS011;14683;50.038;8.078;2024-02-15T19:34:21;7.97;;;5.28;;
23490;SDS011;14683;50.038;8.078;2024-02-15T19:37:27;11.63;;;5.05;;
23490;SDS011;14683;50.038;8.078;2024-02-15T19:40:31;8.02;;;4.82;;
23490;SDS011;14683;50.038;8.078;2024-02-15T19:43:32;6.65;;;4.95;;
23490;SDS011;14683;50.038;8.078;2024-02-15T19:46:33;8.95;;;5.32;;
23490;SDS011;14683;50.038;8.078;2024-02-15T19:49:39;8.60;;;5.70;;
23490;SDS011;14683;50.038;8.078;2024-02-15T19:52:41;9.57;;;5.25;;
23490;SDS011;14683;50.038;8.078;2024-02-15T19:55:43;10.45;;;5.68;;
23490;SDS011;14683;50.038;8.078;2024-02-15T19:58:44;10.23;;;5.78;;
23490;SDS011;14683;50.038;8.078;2024-02-15T20:01:45;12.55;;;6.32;;
23490;SDS011;14683;50.038;8.078;2024-02-15T20:04:46;12.77;;;6.95;;
23490;SDS011;14683;50.038;8.078;2024-02-15T20:07:47;10.25;;;5.65;;
23490;SDS011;14683;50.038;8.078;2024-02-15T20:10:48;7.32;;;5.93;;
23490;SDS011;14683;50.038;8.078;2024-02-15T20:13:52;11.50;;;7.30;;
23490;SDS011;14683;50.038;8.078;2024-02-15T20:16:53;10.90;;;7.35;;
23490;SDS011;14683;50.038;8.078;2024-02-15T20:19:56;13.85;;;7.35;;
23490;SDS011;14683;50.038;8.078;2024-02-15T20:22:57;16.00;;;10.63;;
23490;SDS011;14683;50.038;8.078;2024-02-15T20:25:58;24.33;;;15.80;;
23490;SDS011;14683;50.038;8.078;2024-02-15T20:29:00;25.77;;;16.80;;
23490;SDS011;14683;50.038;8.078;2024-02-15T20:32:01;24.90;;;16.38;;
23490;SDS011;14683;50.038;8.078;2024-02-15T20:35:02;20.00;;;13.93;;
23490;SDS011;14683;50.038;8.078;2024-02-15T20:38:04;13.95;;;10.48;;
23490;SDS011;14683;50.038;8.078;2024-02-15T20:41:06;10.57;;;6.50;;
23490;SDS011;14683;50.038;8.078;2024-02-15T20:44:10;9.30;;;5.82;;
23490;SDS011;14683;50.038;8.078;2024-02-15T20:47:14;8.13;;;4.40;;
23490;SDS011;14683;50.038;8.078;2024-02-15T20:50:18;10.70;;;4.80;;
